createdAt,value
2023-05-18T00:00:19.717Z,9.20
2023-05-18T00:01:22.436Z,9.21
2023-05-18T00:02:26.819Z,9.22
2023-05-18T00:03:30.556Z,9.21
2023-05-18T00:04:36.128Z,9.18
2023-05-18T00:05:38.405Z,9.16
2023-05-18T00:06:40.414Z,9.15
2023-05-18T00:07:44.718Z,9.15
2023-05-18T00:08:47.302Z,9.18
2023-05-18T00:09:49.233Z,9.19
2023-05-18T00:10:51.191Z,9.21
2023-05-18T00:11:53.653Z,9.19
2023-05-18T00:12:55.780Z,9.20
2023-05-18T00:13:57.766Z,9.22
2023-05-18T00:14:59.632Z,9.24
2023-05-18T00:16:01.607Z,9.26
2023-05-18T00:17:03.748Z,9.26
2023-05-18T00:18:05.796Z,9.21
2023-05-18T00:19:08.220Z,9.21
2023-05-18T00:20:10.982Z,9.21
2023-05-18T00:21:13.605Z,9.19
2023-05-18T00:22:19.238Z,9.19
2023-05-18T00:23:23.972Z,9.21
2023-05-18T00:24:25.953Z,9.25
2023-05-18T00:25:28.099Z,9.27
2023-05-18T00:26:30.505Z,9.27
2023-05-18T00:27:33.337Z,9.29
2023-05-18T00:28:35.309Z,9.30
2023-05-18T00:29:37.242Z,9.33
2023-05-18T00:30:39.705Z,9.33
2023-05-18T00:31:42.478Z,9.29
2023-05-18T00:32:44.515Z,9.28
2023-05-18T00:33:46.501Z,9.26
2023-05-18T00:34:48.367Z,9.29
2023-05-18T00:35:50.266Z,9.30
2023-05-18T00:36:52.098Z,9.33
2023-05-18T00:37:54.071Z,9.30
2023-05-18T00:38:55.909Z,9.20
2023-05-18T00:39:57.875Z,9.17
2023-05-18T00:40:59.749Z,9.13
2023-05-18T00:42:01.642Z,9.10
2023-05-18T00:43:03.686Z,9.12
2023-05-18T00:44:05.613Z,9.15
2023-05-18T00:45:07.834Z,9.19
2023-05-18T00:46:09.806Z,9.23
2023-05-18T00:47:11.942Z,9.24
2023-05-18T00:48:14.006Z,9.27
2023-05-18T00:49:16.123Z,9.26
2023-05-18T00:50:18.366Z,9.20
2023-05-18T00:51:20.819Z,9.12
2023-05-18T00:52:23.026Z,9.12
2023-05-18T00:53:25.030Z,9.13
2023-05-18T00:54:27.053Z,9.16
2023-05-18T00:55:29.326Z,9.16
2023-05-18T00:56:34.656Z,9.16
2023-05-18T00:57:37.026Z,9.17
2023-05-18T00:58:40.272Z,9.19
2023-05-18T00:59:43.036Z,9.21
2023-05-18T01:00:44.984Z,9.23
2023-05-18T01:01:47.286Z,9.25
2023-05-18T01:02:52.005Z,9.28
2023-05-18T01:03:56.912Z,9.28
2023-05-18T01:05:00.951Z,9.29
2023-05-18T01:06:06.106Z,9.31
2023-05-18T01:07:08.190Z,9.32
2023-05-18T01:08:10.237Z,9.33
2023-05-18T01:09:13.770Z,9.33
2023-05-18T01:10:17.062Z,9.35
2023-05-18T01:11:34.206Z,9.37
2023-05-18T01:12:36.426Z,9.37
2023-05-18T01:13:47.043Z,9.37
2023-05-18T01:15:04.073Z,9.32
2023-05-18T01:16:08.414Z,9.31
2023-05-18T01:17:22.187Z,9.30
2023-05-18T01:18:29.526Z,9.28
2023-05-18T01:19:40.284Z,9.24
2023-05-18T01:20:43.043Z,9.21
2023-05-18T01:21:57.853Z,9.20
2023-05-18T01:23:21.082Z,9.20
2023-05-18T01:24:26.018Z,9.19
2023-05-18T01:25:32.455Z,9.18
2023-05-18T01:26:37.972Z,9.18
2023-05-18T01:27:42.870Z,9.19
2023-05-18T01:28:46.778Z,9.18
2023-05-18T01:29:49.090Z,9.18
2023-05-18T01:30:51.536Z,9.19
2023-05-18T01:31:53.569Z,9.19
2023-05-18T01:32:55.467Z,9.19
2023-05-18T01:33:57.354Z,9.20
2023-05-18T01:34:59.284Z,9.20
2023-05-18T01:36:01.493Z,9.22
2023-05-18T01:37:03.462Z,9.21
2023-05-18T01:38:05.477Z,9.19
2023-05-18T01:39:07.966Z,9.15
2023-05-18T01:40:09.956Z,9.14
2023-05-18T01:41:23.959Z,9.08
2023-05-18T01:42:28.445Z,9.09
2023-05-18T01:43:37.588Z,9.12
2023-05-18T01:44:52.219Z,9.13
2023-05-18T01:45:56.753Z,9.14
2023-05-18T01:47:01.953Z,9.15
2023-05-18T01:48:04.755Z,9.15
2023-05-18T01:49:13.872Z,9.13
2023-05-18T01:50:19.110Z,9.13
2023-05-18T01:51:21.794Z,9.14
2023-05-18T01:52:27.289Z,9.14
2023-05-18T01:53:35.824Z,9.16
2023-05-18T01:54:39.172Z,9.20
2023-05-18T01:55:42.047Z,9.21
2023-05-18T01:56:45.356Z,9.18
2023-05-18T01:57:48.727Z,9.20
2023-05-18T01:58:50.762Z,9.21
2023-05-18T01:59:54.987Z,9.20
2023-05-18T02:00:56.974Z,9.21
2023-05-18T02:02:02.362Z,9.19
2023-05-18T02:03:04.436Z,9.15
2023-05-18T02:04:10.632Z,9.14
2023-05-18T02:05:13.068Z,9.13
2023-05-18T02:06:14.952Z,9.14
2023-05-18T02:07:16.970Z,9.15
2023-05-18T02:08:18.990Z,9.16
2023-05-18T02:09:22.053Z,9.17
2023-05-18T02:10:23.997Z,9.18
2023-05-18T02:11:26.554Z,9.17
2023-05-18T02:12:28.528Z,9.18
2023-05-18T02:13:30.597Z,9.18
2023-05-18T02:14:32.823Z,9.20
2023-05-18T02:15:34.710Z,9.19
2023-05-18T02:16:36.692Z,9.21
2023-05-18T02:17:39.346Z,9.23
2023-05-18T02:18:41.411Z,9.23
2023-05-18T02:19:43.431Z,9.23
2023-05-18T02:20:49.376Z,9.23
2023-05-18T02:21:51.533Z,9.19
2023-05-18T02:22:53.547Z,9.18
2023-05-18T02:23:55.502Z,9.17
2023-05-18T02:24:57.508Z,9.16
2023-05-18T02:25:59.579Z,9.15
2023-05-18T02:27:01.770Z,9.12
2023-05-18T02:28:03.660Z,9.10
2023-05-18T02:29:12.139Z,9.08
2023-05-18T02:30:16.065Z,9.08
2023-05-18T02:31:18.367Z,9.11
2023-05-18T02:32:20.589Z,9.13
2023-05-18T02:33:26.729Z,9.15
2023-05-18T02:34:32.729Z,9.16
2023-05-18T02:35:34.696Z,9.20
2023-05-18T02:36:42.962Z,9.20
2023-05-18T02:37:44.838Z,9.21
2023-05-18T02:38:46.825Z,9.21
2023-05-18T02:39:48.917Z,9.22
2023-05-18T02:40:51.014Z,9.22
2023-05-18T02:41:52.982Z,9.21
2023-05-18T02:42:54.870Z,9.23
2023-05-18T02:43:56.882Z,9.22
2023-05-18T02:44:59.017Z,9.19
2023-05-18T02:46:00.954Z,9.16
2023-05-18T02:47:02.824Z,9.14
2023-05-18T02:48:04.792Z,9.11
2023-05-18T02:49:07.289Z,9.08
2023-05-18T02:50:09.371Z,9.07
2023-05-18T02:51:11.318Z,9.08
2023-05-18T02:52:13.206Z,9.07
2023-05-18T02:53:15.160Z,9.05
2023-05-18T02:54:17.039Z,9.04
2023-05-18T02:55:19.610Z,9.04
2023-05-18T02:56:21.603Z,9.05
2023-05-18T02:57:23.481Z,9.08
2023-05-18T02:58:25.950Z,9.10
2023-05-18T02:59:27.789Z,9.12
2023-05-18T03:00:30.977Z,9.16
2023-05-18T03:01:35.058Z,9.17
2023-05-18T03:02:39.135Z,9.16
2023-05-18T03:03:42.724Z,9.18
2023-05-18T03:04:44.646Z,9.18
2023-05-18T03:05:46.565Z,9.18
2023-05-18T03:06:53.280Z,9.19
2023-05-18T03:07:55.170Z,9.21
2023-05-18T03:08:57.461Z,9.23
2023-05-18T03:09:59.370Z,9.23
2023-05-18T03:11:01.446Z,9.24
2023-05-18T03:12:03.339Z,9.23
2023-05-18T03:13:05.733Z,9.22
2023-05-18T03:14:07.637Z,9.22
2023-05-18T03:15:09.922Z,9.24
2023-05-18T03:16:11.882Z,9.25
2023-05-18T03:17:14.077Z,9.26
2023-05-18T03:18:16.188Z,9.25
2023-05-18T03:19:18.216Z,9.23
2023-05-18T03:20:20.235Z,9.22
2023-05-18T03:21:22.287Z,9.20
2023-05-18T03:22:24.148Z,9.16
2023-05-18T03:23:27.462Z,9.13
2023-05-18T03:24:30.593Z,9.12
2023-05-18T03:25:33.198Z,9.10
2023-05-18T03:26:35.324Z,9.11
2023-05-18T03:27:38.311Z,9.12
2023-05-18T03:28:40.214Z,9.11
2023-05-18T03:29:42.189Z,9.13
2023-05-18T03:30:44.085Z,9.15
2023-05-18T03:31:46.056Z,9.16
2023-05-18T03:32:48.682Z,9.14
2023-05-18T03:33:50.620Z,9.10
2023-05-18T03:34:53.292Z,9.08
2023-05-18T03:35:55.211Z,9.03
2023-05-18T03:36:58.511Z,9.06
2023-05-18T03:38:00.433Z,9.09
2023-05-18T03:39:02.533Z,9.10
2023-05-18T03:40:14.970Z,9.13
2023-05-18T03:41:16.864Z,9.16
2023-05-18T03:42:18.896Z,9.16
2023-05-18T03:43:20.876Z,9.18
2023-05-18T03:44:22.812Z,9.17
2023-05-18T03:45:24.711Z,9.18
2023-05-18T03:46:26.914Z,9.17
2023-05-18T03:47:30.252Z,9.17
2023-05-18T03:48:32.151Z,9.16
2023-05-18T03:49:34.791Z,9.16
2023-05-18T03:50:37.255Z,9.16
2023-05-18T03:51:39.310Z,9.12
2023-05-18T03:52:42.072Z,9.08
2023-05-18T03:53:44.254Z,9.08
2023-05-18T03:54:46.157Z,9.10
2023-05-18T03:55:49.861Z,9.12
2023-05-18T03:56:51.796Z,9.13
2023-05-18T03:57:54.379Z,9.15
2023-05-18T03:58:56.249Z,9.16
2023-05-18T03:59:58.445Z,9.17
2023-05-18T04:01:01.242Z,9.16
2023-05-18T04:02:03.378Z,9.13
2023-05-18T04:03:05.415Z,9.05
2023-05-18T04:04:07.682Z,9.04
2023-05-18T04:05:10.394Z,9.07
2023-05-18T04:06:12.249Z,9.10
2023-05-18T04:07:16.890Z,9.10
2023-05-18T04:08:18.955Z,9.10
2023-05-18T04:09:22.101Z,9.11
2023-05-18T04:10:24.035Z,9.08
2023-05-18T04:11:26.342Z,9.09
2023-05-18T04:12:28.238Z,9.11
2023-05-18T04:13:30.168Z,9.12
2023-05-18T04:14:35.635Z,9.15
2023-05-18T04:15:37.551Z,9.17
2023-05-18T04:16:39.470Z,9.15
2023-05-18T04:17:46.286Z,9.13
2023-05-18T04:18:48.761Z,9.17
2023-05-18T04:19:50.926Z,9.16
2023-05-18T04:20:53.029Z,9.18
2023-05-18T04:21:54.960Z,9.16
2023-05-18T04:22:58.034Z,9.14
2023-05-18T04:24:00.767Z,9.14
2023-05-18T04:25:03.532Z,9.12
2023-05-18T04:26:06.568Z,9.10
2023-05-18T04:27:10.779Z,9.09
2023-05-18T04:28:12.608Z,9.11
2023-05-18T04:29:14.560Z,9.12
2023-05-18T04:30:19.172Z,9.11
2023-05-18T04:31:22.345Z,9.10
2023-05-18T04:32:28.640Z,9.08
2023-05-18T04:33:30.760Z,9.07
2023-05-18T04:34:34.153Z,9.05
2023-05-18T04:35:36.255Z,9.01
2023-05-18T04:36:41.246Z,9.01
2023-05-18T04:37:43.400Z,9.04
2023-05-18T04:38:45.301Z,9.06
2023-05-18T04:39:47.899Z,9.08
2023-05-18T04:40:50.698Z,9.11
2023-05-18T04:42:01.501Z,9.14
2023-05-18T04:43:04.375Z,9.17
2023-05-18T04:44:06.386Z,9.17
2023-05-18T04:45:08.524Z,9.18
2023-05-18T04:46:10.553Z,9.20
2023-05-18T04:47:12.422Z,9.23
2023-05-18T04:48:14.817Z,9.26
2023-05-18T04:49:16.701Z,9.28
2023-05-18T04:50:18.812Z,9.30
2023-05-18T04:51:21.951Z,9.32
2023-05-18T04:52:23.896Z,9.35
2023-05-18T04:53:27.772Z,9.34
2023-05-18T04:54:33.165Z,9.35
2023-05-18T04:55:35.656Z,9.37
2023-05-18T04:56:37.701Z,9.37
2023-05-18T04:57:39.697Z,9.36
2023-05-18T04:58:42.009Z,9.34
2023-05-18T04:59:47.632Z,9.27
2023-05-18T05:00:49.526Z,9.23
2023-05-18T05:01:51.695Z,9.22
2023-05-18T05:02:53.929Z,9.19
2023-05-18T05:03:58.942Z,9.15
2023-05-18T05:05:01.840Z,9.16
2023-05-18T05:06:03.939Z,9.15
2023-05-18T05:07:05.902Z,9.17
2023-05-18T05:08:07.812Z,9.18
2023-05-18T05:09:09.719Z,9.18
2023-05-18T05:10:11.687Z,9.18
2023-05-18T05:11:13.697Z,9.19
2023-05-18T05:12:16.058Z,9.20
2023-05-18T05:13:17.996Z,9.22
2023-05-18T05:14:19.884Z,9.20
2023-05-18T05:15:21.818Z,9.18
2023-05-18T05:16:23.822Z,9.15
2023-05-18T05:17:25.940Z,9.10
2023-05-18T05:18:27.836Z,9.09
2023-05-18T05:19:29.766Z,9.10
2023-05-18T05:20:34.902Z,9.11
2023-05-18T05:21:36.926Z,9.12
2023-05-18T05:22:39.049Z,9.12
2023-05-18T05:23:41.601Z,9.11
2023-05-18T05:24:43.477Z,9.12
2023-05-18T05:25:45.441Z,9.11
2023-05-18T05:26:47.436Z,9.14
2023-05-18T05:27:49.314Z,9.12
2023-05-18T05:28:51.294Z,9.10
2023-05-18T05:29:53.272Z,9.12
2023-05-18T05:30:55.207Z,9.14
2023-05-18T05:31:57.388Z,9.16
2023-05-18T05:32:59.501Z,9.17
2023-05-18T05:34:01.376Z,9.18
2023-05-18T05:35:03.692Z,9.18
2023-05-18T05:36:05.744Z,9.20
2023-05-18T05:37:07.712Z,9.24
2023-05-18T05:38:09.855Z,9.24
2023-05-18T05:39:12.121Z,9.24
2023-05-18T05:40:14.101Z,9.23
2023-05-18T05:41:16.199Z,9.23
2023-05-18T05:42:18.203Z,9.23
2023-05-18T05:43:20.129Z,9.23
2023-05-18T05:44:22.557Z,9.21
2023-05-18T05:45:24.484Z,9.20
2023-05-18T05:46:26.600Z,9.19
2023-05-18T05:47:28.659Z,9.21
2023-05-18T05:48:30.722Z,9.22
2023-05-18T05:49:32.611Z,9.22
2023-05-18T05:50:34.601Z,9.23
2023-05-18T05:51:36.546Z,9.22
2023-05-18T05:52:38.462Z,9.22
2023-05-18T05:53:41.382Z,9.24
2023-05-18T05:54:43.488Z,9.24
2023-05-18T05:55:45.753Z,9.27
2023-05-18T05:56:47.730Z,9.30
2023-05-18T05:57:49.788Z,9.31
2023-05-18T05:58:52.216Z,9.30
2023-05-18T05:59:54.122Z,9.29
2023-05-18T06:00:56.069Z,9.28
2023-05-18T06:01:58.173Z,9.23
2023-05-18T06:03:00.679Z,9.26
2023-05-18T06:04:04.755Z,9.26
2023-05-18T06:05:07.637Z,9.28
2023-05-18T06:06:09.636Z,9.27
2023-05-18T06:07:11.718Z,9.27
2023-05-18T06:08:13.715Z,9.27
2023-05-18T06:09:16.353Z,9.25
2023-05-18T06:10:18.303Z,9.23
2023-05-18T06:11:20.265Z,9.21
2023-05-18T06:12:22.183Z,9.26
2023-05-18T06:13:24.060Z,9.30
2023-05-18T06:14:26.377Z,9.34
2023-05-18T06:15:28.468Z,9.38
2023-05-18T06:16:30.590Z,9.39
2023-05-18T06:17:32.552Z,9.40
2023-05-18T06:18:35.347Z,9.41
2023-05-18T06:19:37.361Z,9.41
2023-05-18T06:20:39.586Z,9.45
2023-05-18T06:21:41.549Z,9.47
2023-05-18T06:22:44.224Z,9.45
2023-05-18T06:23:46.285Z,9.46
2023-05-18T06:24:48.335Z,9.45
2023-05-18T06:25:50.477Z,9.45
2023-05-18T06:26:52.409Z,9.45
2023-05-18T06:27:54.343Z,9.46
2023-05-18T06:28:56.283Z,9.43
2023-05-18T06:29:58.419Z,9.45
2023-05-18T06:31:00.462Z,9.47
2023-05-18T06:32:02.558Z,9.50
2023-05-18T06:33:04.883Z,9.50
2023-05-18T06:34:06.913Z,9.52
2023-05-18T06:35:09.063Z,9.53
2023-05-18T06:36:10.936Z,9.54
2023-05-18T06:37:12.985Z,9.59
2023-05-18T06:38:15.035Z,9.57
2023-05-18T06:39:17.058Z,9.59
2023-05-18T06:40:19.001Z,9.60
2023-05-18T06:41:21.011Z,9.63
2023-05-18T06:42:23.084Z,9.63
2023-05-18T06:43:28.772Z,9.64
2023-05-18T06:44:30.847Z,9.63
2023-05-18T06:45:35.367Z,9.64
2023-05-18T06:46:39.013Z,9.65
2023-05-18T06:47:41.191Z,9.64
2023-05-18T06:48:45.281Z,9.59
2023-05-18T06:49:47.181Z,9.62
2023-05-18T06:50:49.185Z,9.64
2023-05-18T06:51:51.332Z,9.64
2023-05-18T06:52:53.666Z,9.64
2023-05-18T06:53:55.622Z,9.65
2023-05-18T06:54:57.864Z,9.69
2023-05-18T06:55:59.875Z,9.73
2023-05-18T06:57:01.917Z,9.72
2023-05-18T06:58:03.769Z,9.71
2023-05-18T06:59:05.789Z,9.71
2023-05-18T07:00:12.707Z,9.73
2023-05-18T07:01:14.675Z,9.74
2023-05-18T07:02:16.648Z,9.75
2023-05-18T07:03:18.916Z,9.77
2023-05-18T07:04:20.947Z,9.72
2023-05-18T07:05:23.624Z,9.73
2023-05-18T07:06:25.931Z,9.73
2023-05-18T07:07:27.944Z,9.75
2023-05-18T07:08:29.951Z,9.76
2023-05-18T07:09:32.036Z,9.76
2023-05-18T07:10:35.719Z,9.75
2023-05-18T07:11:37.786Z,9.74
2023-05-18T07:12:39.764Z,9.75
2023-05-18T07:13:41.742Z,9.76
2023-05-18T07:14:45.326Z,9.77
2023-05-18T07:15:47.461Z,9.76
2023-05-18T07:16:49.422Z,9.75
2023-05-18T07:17:51.310Z,9.76
2023-05-18T07:18:53.367Z,9.76
2023-05-18T07:19:55.277Z,9.75
2023-05-18T07:20:57.212Z,9.68
2023-05-18T07:21:59.887Z,9.64
2023-05-18T07:23:01.810Z,9.67
2023-05-18T07:24:03.857Z,9.67
2023-05-18T07:25:06.028Z,9.69
2023-05-18T07:26:10.354Z,9.68
2023-05-18T07:27:12.377Z,9.70
2023-05-18T07:28:14.365Z,9.72
2023-05-18T07:29:16.302Z,9.73
2023-05-18T07:30:18.469Z,9.73
2023-05-18T07:31:21.996Z,9.75
2023-05-18T07:32:24.072Z,9.75
2023-05-18T07:33:26.028Z,9.78
2023-05-18T07:34:27.965Z,9.81
2023-05-18T07:35:30.094Z,9.84
2023-05-18T07:36:32.070Z,9.86
2023-05-18T07:37:34.029Z,9.87
2023-05-18T07:38:35.969Z,9.90
2023-05-18T07:39:39.198Z,9.85
2023-05-18T07:40:41.706Z,9.81
2023-05-18T07:41:43.533Z,9.82
2023-05-18T07:42:45.607Z,9.87
2023-05-18T07:43:47.686Z,9.90
2023-05-18T07:44:49.575Z,9.92
2023-05-18T07:45:51.512Z,9.90
2023-05-18T07:46:53.545Z,9.92
2023-05-18T07:47:55.726Z,9.95
2023-05-18T07:48:57.816Z,9.97
2023-05-18T07:49:59.706Z,10.00
2023-05-18T07:51:01.638Z,10.02
2023-05-18T07:52:03.953Z,10.07
2023-05-18T07:53:05.914Z,10.11
2023-05-18T07:54:07.823Z,10.10
2023-05-18T07:55:09.756Z,10.08
2023-05-18T07:56:11.821Z,10.07
2023-05-18T07:57:13.766Z,10.06
2023-05-18T07:58:16.333Z,10.06
2023-05-18T07:59:18.242Z,10.08
2023-05-18T08:00:20.696Z,10.12
2023-05-18T08:01:27.772Z,10.12
2023-05-18T08:02:31.321Z,10.12
2023-05-18T08:03:34.876Z,10.12
2023-05-18T08:04:37.037Z,10.13
2023-05-18T08:05:39.160Z,10.12
2023-05-18T08:06:41.036Z,10.13
2023-05-18T08:07:43.063Z,10.11
2023-05-18T08:08:45.011Z,10.13
2023-05-18T08:09:46.977Z,10.13
2023-05-18T08:10:48.917Z,10.15
2023-05-18T08:11:51.891Z,10.14
2023-05-18T08:12:53.851Z,10.15
2023-05-18T08:13:55.738Z,10.15
2023-05-18T08:14:57.656Z,10.15
2023-05-18T08:16:11.176Z,10.12
2023-05-18T08:17:14.038Z,10.12
2023-05-18T08:18:16.202Z,10.11
2023-05-18T08:19:18.177Z,10.09
2023-05-18T08:20:20.192Z,10.08
2023-05-18T08:21:22.060Z,10.10
2023-05-18T08:22:23.988Z,10.12
2023-05-18T08:23:25.953Z,10.14
2023-05-18T08:24:27.961Z,10.14
2023-05-18T08:25:30.226Z,10.09
2023-05-18T08:26:32.306Z,10.08
2023-05-18T08:27:34.228Z,10.04
2023-05-18T08:28:36.031Z,10.05
2023-05-18T08:29:38.048Z,10.06
2023-05-18T08:30:39.981Z,10.08
2023-05-18T08:31:42.006Z,10.04
2023-05-18T08:32:43.929Z,10.04
2023-05-18T08:33:45.821Z,10.03
2023-05-18T08:34:48.422Z,10.05
2023-05-18T08:35:50.443Z,10.05
2023-05-18T08:36:52.827Z,10.06
2023-05-18T08:37:55.273Z,10.07
2023-05-18T08:38:57.252Z,10.08
2023-05-18T08:40:00.050Z,10.10
2023-05-18T08:41:02.093Z,10.12
2023-05-18T08:42:22.767Z,10.12
2023-05-18T08:43:30.029Z,10.11
2023-05-18T08:44:40.581Z,10.09
2023-05-18T08:45:50.683Z,10.07
2023-05-18T08:46:53.344Z,10.10
2023-05-18T08:47:57.774Z,10.10
2023-05-18T08:49:01.183Z,10.11
2023-05-18T08:50:04.082Z,10.09
2023-05-18T08:51:07.081Z,10.14
2023-05-18T08:52:09.581Z,10.17
2023-05-18T08:53:13.955Z,10.18
2023-05-18T08:54:19.989Z,10.22
2023-05-18T08:55:23.471Z,10.23
2023-05-18T08:56:26.795Z,10.20
2023-05-18T08:57:30.972Z,10.21
2023-05-18T08:58:35.861Z,10.16
2023-05-18T08:59:41.885Z,10.16
2023-05-18T09:00:43.872Z,10.14
2023-05-18T09:01:47.293Z,10.15
2023-05-18T09:02:49.545Z,10.10
2023-05-18T09:03:51.413Z,10.11
2023-05-18T09:04:54.957Z,10.14
2023-05-18T09:05:58.895Z,10.16
2023-05-18T09:07:03.355Z,10.19
2023-05-18T09:08:06.593Z,10.19
2023-05-18T09:09:09.936Z,10.19
2023-05-18T09:10:13.903Z,10.19
2023-05-18T09:11:16.787Z,10.18
2023-05-18T09:12:19.547Z,10.20
2023-05-18T09:13:21.957Z,10.18
2023-05-18T09:14:26.201Z,10.18
2023-05-18T09:15:29.157Z,10.23
2023-05-18T09:16:31.625Z,10.24
2023-05-18T09:17:33.615Z,10.21
2023-05-18T09:18:35.814Z,10.21
2023-05-18T09:19:37.853Z,10.21
2023-05-18T09:20:39.847Z,10.20
2023-05-18T09:21:41.765Z,10.24
2023-05-18T09:22:44.015Z,10.30
2023-05-18T09:23:46.138Z,10.33
2023-05-18T09:24:49.245Z,10.34
2023-05-18T09:25:52.965Z,10.35
2023-05-18T09:26:57.156Z,10.30
2023-05-18T09:27:59.153Z,10.34
2023-05-18T09:29:01.676Z,10.36
2023-05-18T09:30:05.198Z,10.33
2023-05-18T09:31:09.316Z,10.35
2023-05-18T09:32:11.406Z,10.35
2023-05-18T09:33:22.102Z,10.35
2023-05-18T09:34:24.887Z,10.33
2023-05-18T09:35:27.015Z,10.36
2023-05-18T09:36:29.886Z,10.40
2023-05-18T09:37:32.062Z,10.40
2023-05-18T09:38:44.238Z,10.30
2023-05-18T09:39:46.800Z,10.24
2023-05-18T09:40:49.585Z,10.21
2023-05-18T09:42:03.004Z,10.20
2023-05-18T09:43:07.672Z,10.25
2023-05-18T09:44:10.029Z,10.19
2023-05-18T09:45:19.592Z,10.23
2023-05-18T09:46:22.391Z,10.28
2023-05-18T09:47:24.433Z,10.31
2023-05-18T09:48:26.736Z,10.35
2023-05-18T09:49:31.858Z,10.39
2023-05-18T09:50:33.839Z,10.40
2023-05-18T09:51:39.396Z,10.40
2023-05-18T09:52:44.277Z,10.46
2023-05-18T09:53:58.798Z,10.47
2023-05-18T09:55:04.902Z,10.46
2023-05-18T09:56:09.734Z,10.48
2023-05-18T09:57:11.774Z,10.52
2023-05-18T09:58:13.764Z,10.49
2023-05-18T09:59:16.339Z,10.48
2023-05-18T10:00:20.085Z,10.46
2023-05-18T10:01:22.687Z,10.39
2023-05-18T10:02:26.312Z,10.41
2023-05-18T10:03:32.429Z,10.41
2023-05-18T10:04:44.330Z,10.44
2023-05-18T10:05:46.481Z,10.45
2023-05-18T10:06:51.658Z,10.41
2023-05-18T10:07:57.788Z,10.41
2023-05-18T10:09:02.157Z,10.33
2023-05-18T10:10:05.409Z,10.32
2023-05-18T10:11:08.566Z,10.30
2023-05-18T10:12:14.009Z,10.29
2023-05-18T10:13:19.806Z,10.28
2023-05-18T10:14:30.539Z,10.33
2023-05-18T10:15:33.767Z,10.38
2023-05-18T10:16:35.849Z,10.41
2023-05-18T10:17:43.419Z,10.46
2023-05-18T10:18:46.473Z,10.45
2023-05-18T10:19:53.360Z,10.48
2023-05-18T10:20:59.172Z,10.50
2023-05-18T10:22:06.451Z,10.53
2023-05-18T10:23:10.091Z,10.58
2023-05-18T10:24:12.850Z,10.60
2023-05-18T10:25:18.986Z,10.60
2023-05-18T10:26:23.280Z,10.63
2023-05-18T10:27:28.470Z,10.67
2023-05-18T10:28:42.194Z,10.66
2023-05-18T10:29:44.868Z,10.57
2023-05-18T10:30:47.924Z,10.55
2023-05-18T10:31:51.031Z,10.58
2023-05-18T10:32:54.397Z,10.61
2023-05-18T10:33:56.369Z,10.62
2023-05-18T10:35:00.110Z,10.61
2023-05-18T10:36:03.111Z,10.63
2023-05-18T10:37:05.743Z,10.64
2023-05-18T10:38:08.523Z,10.69
2023-05-18T10:39:10.682Z,10.70
2023-05-18T10:40:13.901Z,10.72
2023-05-18T10:41:17.936Z,10.78
2023-05-18T10:42:20.900Z,10.80
2023-05-18T10:43:30.243Z,10.79
2023-05-18T10:44:32.491Z,10.78
2023-05-18T10:45:35.721Z,10.81
2023-05-18T10:46:38.623Z,10.85
2023-05-18T10:47:42.896Z,10.83
2023-05-18T10:48:48.713Z,10.86
2023-05-18T10:49:50.708Z,10.87
2023-05-18T10:50:53.557Z,10.86
2023-05-18T10:51:56.239Z,10.87
2023-05-18T10:52:59.611Z,10.89
2023-05-18T10:54:11.277Z,10.90
2023-05-18T10:55:13.468Z,10.93
2023-05-18T10:56:18.424Z,10.89
2023-05-18T10:57:21.043Z,10.83
2023-05-18T10:58:25.563Z,10.86
2023-05-18T10:59:27.965Z,10.88
2023-05-18T11:00:32.140Z,10.91
2023-05-18T11:01:34.758Z,10.92
2023-05-18T11:02:40.441Z,10.97
2023-05-18T11:03:42.540Z,10.93
2023-05-18T11:04:46.188Z,10.87
2023-05-18T11:05:52.480Z,10.88
2023-05-18T11:06:55.288Z,10.88
2023-05-18T11:08:03.627Z,10.87
2023-05-18T11:09:06.397Z,10.87
2023-05-18T11:10:09.549Z,10.87
2023-05-18T11:11:11.496Z,10.93
2023-05-18T11:12:14.389Z,10.96
2023-05-18T11:13:16.398Z,10.98
2023-05-18T11:14:25.175Z,11.02
2023-05-18T11:15:46.975Z,11.00
2023-05-18T11:16:49.140Z,11.04
2023-05-18T11:18:12.188Z,11.06
2023-05-18T11:19:14.589Z,11.09
2023-05-18T11:20:17.406Z,11.01
2023-05-18T11:21:20.011Z,11.01
2023-05-18T11:22:21.930Z,10.96
2023-05-18T11:23:24.232Z,10.90
2023-05-18T11:24:36.953Z,10.93
2023-05-18T11:25:39.583Z,10.99
2023-05-18T11:26:41.588Z,11.04
2023-05-18T11:27:43.582Z,11.02
2023-05-18T11:28:49.491Z,11.00
2023-05-18T11:29:57.745Z,11.02
2023-05-18T11:31:18.130Z,11.01
2023-05-18T11:32:30.591Z,10.95
2023-05-18T11:33:33.132Z,10.96
2023-05-18T11:34:39.432Z,11.00
2023-05-18T11:35:57.054Z,11.03
2023-05-18T11:36:58.918Z,11.07
2023-05-18T11:38:08.691Z,11.05
2023-05-18T11:39:11.667Z,11.05
2023-05-18T11:40:33.552Z,11.02
2023-05-18T11:41:35.742Z,10.97
2023-05-18T11:42:37.880Z,10.94
2023-05-18T11:43:39.783Z,10.95
2023-05-18T11:44:41.795Z,10.98
2023-05-18T11:45:54.045Z,11.02
2023-05-18T11:46:59.271Z,11.02
2023-05-18T11:48:02.429Z,11.06
2023-05-18T11:49:05.085Z,11.02
2023-05-18T11:50:08.744Z,11.03
2023-05-18T11:51:12.128Z,10.98
2023-05-18T11:52:16.548Z,10.94
2023-05-18T11:53:18.993Z,10.93
2023-05-18T11:54:23.296Z,10.97
2023-05-18T11:55:37.390Z,10.99
2023-05-18T11:56:41.632Z,10.99
2023-05-18T11:57:46.086Z,10.96
2023-05-18T11:59:07.854Z,10.90
2023-05-18T12:00:15.546Z,10.86
2023-05-18T12:01:17.922Z,10.86
2023-05-18T12:02:22.183Z,10.80
2023-05-18T12:03:26.112Z,10.81
2023-05-18T12:04:29.151Z,10.86
2023-05-18T12:05:31.054Z,10.91
2023-05-18T12:06:33.591Z,10.93
2023-05-18T12:07:36.771Z,10.96
2023-05-18T12:08:44.240Z,10.94
2023-05-18T12:09:47.403Z,10.89
2023-05-18T12:10:49.894Z,10.88
2023-05-18T12:11:52.252Z,10.89
2023-05-18T12:12:54.299Z,10.89
2023-05-18T12:13:56.780Z,10.88
2023-05-18T12:14:59.426Z,10.87
2023-05-18T12:16:02.071Z,10.89
2023-05-18T12:17:04.472Z,10.92
2023-05-18T12:18:06.751Z,10.95
2023-05-18T12:19:08.865Z,10.97
2023-05-18T12:20:12.284Z,10.97
2023-05-18T12:21:14.482Z,10.98
2023-05-18T12:22:16.610Z,10.99
2023-05-18T12:23:18.724Z,10.95
2023-05-18T12:24:21.350Z,10.93
2023-05-18T12:25:24.420Z,10.94
2023-05-18T12:26:26.377Z,10.97
2023-05-18T12:27:28.341Z,10.97
2023-05-18T12:28:30.295Z,10.94
2023-05-18T12:29:32.834Z,10.95
2023-05-18T12:30:36.359Z,10.93
2023-05-18T12:31:40.690Z,10.95
2023-05-18T12:32:47.264Z,10.95
2023-05-18T12:33:49.581Z,10.96
2023-05-18T12:34:52.514Z,10.94
2023-05-18T12:35:55.237Z,10.89
2023-05-18T12:36:57.165Z,10.83
2023-05-18T12:38:03.235Z,10.82
2023-05-18T12:39:05.298Z,10.84
2023-05-18T12:40:07.495Z,10.86
2023-05-18T12:41:09.564Z,10.86
2023-05-18T12:42:12.486Z,10.88
2023-05-18T12:43:14.515Z,10.91
2023-05-18T12:44:17.142Z,10.91
2023-05-18T12:45:19.279Z,10.90
2023-05-18T12:46:22.976Z,10.87
2023-05-18T12:47:25.205Z,10.89
2023-05-18T12:48:27.188Z,10.90
2023-05-18T12:49:29.173Z,10.89
2023-05-18T12:50:31.873Z,10.91
2023-05-18T12:51:35.845Z,10.93
2023-05-18T12:52:37.915Z,10.96
2023-05-18T12:53:43.404Z,10.97
2023-05-18T12:54:56.051Z,11.00
2023-05-18T12:56:01.994Z,11.01
2023-05-18T12:57:07.930Z,11.04
2023-05-18T12:58:20.047Z,11.02
2023-05-18T12:59:22.101Z,11.01
2023-05-18T13:00:24.185Z,11.01
2023-05-18T13:01:26.746Z,11.02
2023-05-18T13:02:31.844Z,11.04
2023-05-18T13:03:34.631Z,11.01
2023-05-18T13:04:36.737Z,11.01
2023-05-18T13:05:39.033Z,11.00
2023-05-18T13:06:42.086Z,10.98
2023-05-18T13:07:45.004Z,10.97
2023-05-18T13:08:46.890Z,10.98
2023-05-18T13:09:49.914Z,11.00
2023-05-18T13:11:01.622Z,10.98
2023-05-18T13:12:08.180Z,10.93
2023-05-18T13:13:10.475Z,10.93
2023-05-18T13:14:12.378Z,10.91
2023-05-18T13:15:21.948Z,10.91
2023-05-18T13:16:23.910Z,10.94
2023-05-18T13:17:25.898Z,10.97
2023-05-18T13:18:28.665Z,10.98
2023-05-18T13:19:31.867Z,10.91
2023-05-18T13:20:37.041Z,10.90
2023-05-18T13:21:39.981Z,10.90
2023-05-18T13:22:42.169Z,10.93
2023-05-18T13:23:44.212Z,10.94
2023-05-18T13:24:46.933Z,10.96
2023-05-18T13:25:49.037Z,10.93
2023-05-18T13:26:51.605Z,10.93
2023-05-18T13:27:55.251Z,10.93
2023-05-18T13:28:58.257Z,10.95
2023-05-18T13:30:00.258Z,10.97
2023-05-18T13:31:02.232Z,11.01
2023-05-18T13:32:04.462Z,11.02
2023-05-18T13:33:08.673Z,11.05
2023-05-18T13:34:10.645Z,11.04
2023-05-18T13:35:13.669Z,11.06
2023-05-18T13:36:16.420Z,11.09
2023-05-18T13:37:18.929Z,11.09
2023-05-18T13:38:20.841Z,11.09
2023-05-18T13:39:23.292Z,11.08
2023-05-18T13:40:25.904Z,11.10
2023-05-18T13:41:28.047Z,11.11
2023-05-18T13:42:29.967Z,11.10
2023-05-18T13:43:32.474Z,11.11
2023-05-18T13:44:34.452Z,11.13
2023-05-18T13:45:36.590Z,11.13
2023-05-18T13:46:38.884Z,11.13
2023-05-18T13:47:41.461Z,11.14
2023-05-18T13:48:43.439Z,11.13
2023-05-18T13:49:45.391Z,11.12
2023-05-18T13:50:47.341Z,11.09
2023-05-18T13:51:49.313Z,11.08